Time;durP1;ratioP1;P1;durP2;ratioP2;P2;SDS_P1;SDS_P2;PMS_P1;PMS_P2;Temp;Humidity;BMP_temperature;BMP_pressure;BME280_temperature;BME280_humidity;BME280_pressure;Samples;Min_cycle;Max_cycle;Signal;HPM_P1;HPM_P2
2021/10/19 00:02:14;;;;;;;25.45;13.43;;;;;;;4.61;99.12;99357.94;5051797;28;20033;-67
2021/10/19 00:04:39;;;;;;;18.92;11.50;;;;;;;4.76;98.75;99358.19;5056046;28;20016;-67
2021/10/19 00:07:05;;;;;;;21.48;12.68;;;;;;;4.84;98.19;99356.59;5046381;28;20021;-67
2021/10/19 00:09:30;;;;;;;20.38;12.48;;;;;;;4.95;98.18;99355.88;5043762;28;20217;-67
2021/10/19 00:11:55;;;;;;;20.58;12.02;;;;;;;4.98;98.10;99357.66;5044840;28;20017;-67
2021/10/19 00:14:21;;;;;;;19.90;12.85;;;;;;;4.97;98.31;99358.53;5044828;28;20088;-67
2021/10/19 00:16:46;;;;;;;22.20;11.93;;;;;;;5.03;98.40;99363.81;5044653;28;20252;-67
2021/10/19 00:19:12;;;;;;;19.35;12.10;;;;;;;5.10;98.26;99370.88;5044717;28;20032;-67
2021/10/19 00:21:37;;;;;;;20.30;11.38;;;;;;;5.20;98.29;99380.56;5044694;28;20025;-67
2021/10/19 00:24:03;;;;;;;18.52;11.38;;;;;;;5.21;97.99;99379.72;5044895;28;20021;-67
2021/10/19 00:26:28;;;;;;;18.63;11.82;;;;;;;5.31;97.60;99386.84;5052351;28;20020;-67
2021/10/19 00:28:54;;;;;;;19.23;12.13;;;;;;;5.32;98.09;99394.66;5051258;28;20020;-67
2021/10/19 00:31:19;;;;;;;18.45;11.38;;;;;;;5.37;97.53;99382.56;5052722;28;20039;-67
2021/10/19 00:33:45;;;;;;;19.15;11.43;;;;;;;5.27;97.62;99385.03;5054674;28;20013;-67
2021/10/19 00:36:10;;;;;;;18.05;11.38;;;;;;;5.24;97.89;99390.19;5056746;28;20307;-68
2021/10/19 00:38:36;;;;;;;19.58;11.68;;;;;;;5.29;97.66;99385.94;5049997;28;20096;-68
2021/10/19 00:41:03;;;;;;;21.05;12.45;;;;;;;5.25;98.34;99371.09;5055692;28;20128;-68
2021/10/19 00:43:28;;;;;;;20.00;12.40;;;;;;;5.29;98.14;99372.88;5053898;28;20052;-68
2021/10/19 00:45:56;;;;;;;19.95;12.82;;;;;;;5.42;98.60;99364.34;5052753;28;20333;-68
2021/10/19 00:48:25;;;;;;;17.70;11.32;;;;;;;5.59;98.63;99365.41;5055126;28;20067;-67
2021/10/19 00:50:51;;;;;;;18.38;11.30;;;;;;;5.61;98.59;99366.31;5051012;28;20108;-67
2021/10/19 00:53:17;;;;;;;18.65;11.25;;;;;;;5.68;98.33;99368.13;5054774;28;20309;-67
2021/10/19 00:55:44;;;;;;;21.92;12.98;;;;;;;5.77;98.22;99366.53;5056264;28;20021;-67
2021/10/19 00:58:09;;;;;;;18.65;11.93;;;;;;;5.83;98.54;99368.34;5050900;28;20309;-67
2021/10/19 01:00:35;;;;;;;21.58;13.25;;;;;;;5.88;98.86;99369.25;5057729;28;20058;-67
2021/10/19 01:03:01;;;;;;;20.80;11.52;;;;;;;6.03;99.10;99374.66;5062181;28;20308;-67
2021/10/19 01:05:27;;;;;;;19.17;12.02;;;;;;;6.10;98.79;99369.50;5055307;28;20032;-67
2021/10/19 01:07:53;;;;;;;18.40;11.15;;;;;;;6.19;98.64;99373.94;5049476;28;20044;-67
2021/10/19 01:10:19;;;;;;;19.65;12.23;;;;;;;5.95;98.41;99363.28;5052049;28;20025;-67
2021/10/19 01:12:44;;;;;;;19.80;11.73;;;;;;;6.10;98.80;99360.78;5051583;28;20193;-67
2021/10/19 01:15:12;;;;;;;21.83;12.35;;;;;;;6.10;98.46;99358.16;5053412;28;20029;-67
2021/10/19 01:17:50;;;;;;;20.10;12.60;;;;;;;6.18;98.74;99353.91;5049410;28;20116;-67
2021/10/19 01:20:19;;;;;;;18.60;11.10;;;;;;;6.26;98.53;99386.22;5053056;28;20028;-67
2021/10/19 01:22:45;;;;;;;16.98;11.25;;;;;;;6.24;98.90;99356.59;5051198;28;20017;-67
2021/10/19 01:25:15;;;;;;;17.85;10.75;;;;;;;6.36;98.42;99351.47;5051258;28;20028;-67
2021/10/19 01:27:54;;;;;;;14.85;9.98;;;;;;;6.43;98.67;99361.13;5053847;28;20012;-67
2021/10/19 01:30:20;;;;;;;16.23;10.70;;;;;;;6.48;99.03;99359.38;5051079;28;20047;-67
2021/10/19 01:32:46;;;;;;;17.98;11.10;;;;;;;6.50;98.72;99360.28;5053721;28;20222;-67
2021/10/19 01:35:12;;;;;;;17.95;11.63;;;;;;;6.47;98.65;99357.66;5051754;28;20025;-67
2021/10/19 01:37:38;;;;;;;17.90;11.35;;;;;;;6.33;98.58;99356.66;5055383;28;20084;-67
2021/10/19 01:40:08;;;;;;;17.80;10.95;;;;;;;6.33;98.98;99351.44;5052946;28;20328;-67
2021/10/19 01:42:35;;;;;;;19.17;11.65;;;;;;;6.35;99.55;99344.47;5049389;28;20227;-67
2021/10/19 01:45:00;;;;;;;18.60;11.27;;;;;;;6.41;99.66;99344.53;5053255;28;20255;-67
2021/10/19 01:47:26;;;;;;;18.70;11.32;;;;;;;6.49;99.54;99342.84;5049525;28;20017;-67
2021/10/19 01:49:51;;;;;;;18.10;10.35;;;;;;;6.63;99.43;99335.97;5053053;28;20013;-67
2021/10/19 01:52:16;;;;;;;15.98;10.45;;;;;;;6.67;99.09;99334.28;5050708;28;20140;-67
2021/10/19 01:54:42;;;;;;;18.30;10.60;;;;;;;6.76;99.02;99340.44;5048724;28;20029;-67
2021/10/19 01:57:07;;;;;;;18.52;10.50;;;;;;;6.78;98.69;99330.88;5043540;28;20030;-67
2021/10/19 01:59:32;;;;;;;17.65;11.00;;;;;;;6.80;98.54;99329.13;5051565;28;20025;-67
2021/10/19 02:01:58;;;;;;;18.23;11.35;;;;;;;6.84;98.57;99336.16;5052685;28;20092;-67
2021/10/19 02:04:23;;;;;;;15.98;10.48;;;;;;;6.87;98.85;99333.53;5048405;28;20025;-67
2021/10/19 02:06:48;;;;;;;17.05;10.90;;;;;;;6.95;99.00;99329.22;5053470;28;20235;-67
2021/10/19 02:09:14;;;;;;;18.23;10.90;;;;;;;6.99;99.01;99335.38;5051352;28;20017;-67
2021/10/19 02:11:39;;;;;;;19.17;11.75;;;;;;;6.95;99.05;99347.53;5055102;28;20083;-67
2021/10/19 02:14:05;;;;;;;17.27;11.25;;;;;;;6.89;98.99;99350.13;5053447;28;20209;-67
2021/10/19 02:16:30;;;;;;;19.02;12.05;;;;;;;6.73;98.93;99343.03;5051936;28;20079;-67
2021/10/19 02:18:55;;;;;;;20.40;12.68;;;;;;;6.72;99.84;99348.25;5051338;28;20041;-67
2021/10/19 02:21:21;;;;;;;19.90;12.55;;;;;;;6.90;100.00;99336.19;5049761;28;20093;-67
2021/10/19 02:23:46;;;;;;;17.27;10.50;;;;;;;7.01;99.35;99344.97;5044647;28;20025;-67
2021/10/19 02:26:11;;;;;;;17.65;11.13;;;;;;;7.00;99.45;99330.13;5045856;28;20183;-67
2021/10/19 02:28:37;;;;;;;17.55;11.05;;;;;;;7.07;99.07;99328.41;5046937;28;20017;-67
2021/10/19 02:31:05;;;;;;;19.10;11.52;;;;;;;7.08;98.66;99320.56;5045771;28;20096;-67
2021/10/19 02:33:31;;;;;;;23.25;12.60;;;;;;;6.91;99.07;99311.75;5046866;28;20025;-67
2021/10/19 02:35:56;;;;;;;17.55;11.68;;;;;;;6.94;99.58;99317.00;5046768;28;20200;-67
2021/10/19 02:38:21;;;;;;;16.90;10.45;;;;;;;7.06;99.72;99314.47;5046813;28;20083;-67
2021/10/19 02:40:47;;;;;;;20.60;12.98;;;;;;;7.12;100.00;99319.72;5046697;28;20021;-67
2021/10/19 02:43:12;;;;;;;21.58;12.52;;;;;;;7.19;100.00;99313.66;5052501;28;20061;-67
2021/10/19 02:45:38;;;;;;;24.63;14.18;;;;;;;7.21;100.00;99306.66;5054818;28;20071;-67
2021/10/19 02:48:03;;;;;;;20.05;11.95;;;;;;;7.33;100.00;99306.72;5056473;28;20063;-67
2021/10/19 02:50:29;;;;;;;23.65;12.30;;;;;;;7.37;100.00;99308.47;5056847;28;20020;-67
2021/10/19 02:52:54;;;;;;;19.92;11.27;;;;;;;7.44;100.00;99309.41;5056871;28;20071;-67
2021/10/19 02:55:19;;;;;;;21.33;12.52;;;;;;;7.48;100.00;99312.03;5055618;28;20317;-67
2021/10/19 02:57:46;;;;;;;23.02;12.25;;;;;;;7.51;100.00;99312.03;5051747;28;20036;-67
2021/10/19 03:00:13;;;;;;;22.83;13.02;;;;;;;7.51;100.00;99305.91;5046572;28;20028;-67
2021/10/19 03:02:38;;;;;;;17.00;10.35;;;;;;;7.60;100.00;99319.94;5046169;28;20025;-67
2021/10/19 03:05:04;;;;;;;18.52;10.90;;;;;;;7.63;99.43;99317.31;5046177;28;20029;-67
2021/10/19 03:07:29;;;;;;;19.38;12.38;;;;;;;7.58;99.95;99313.81;5053507;28;20021;-67
2021/10/19 03:09:55;;;;;;;22.42;12.30;;;;;;;7.58;100.00;99308.56;5053401;28;20025;-67
2021/10/19 03:12:20;;;;;;;22.88;13.07;;;;;;;7.56;100.00;99312.06;5054116;28;20342;-67
2021/10/19 03:14:46;;;;;;;19.48;12.38;;;;;;;7.54;100.00;99312.06;5052234;28;20017;-67
2021/10/19 03:17:11;;;;;;;22.73;12.77;;;;;;;7.60;100.00;99312.09;5045734;28;20055;-67
2021/10/19 03:19:36;;;;;;;22.30;13.43;;;;;;;7.70;100.00;99313.84;5051736;28;20063;-67
2021/10/19 03:22:02;;;;;;;19.92;11.52;;;;;;;7.76;100.00;99311.25;5058195;28;20124;-67
2021/10/19 03:24:27;;;;;;;22.50;13.50;;;;;;;7.65;100.00;99310.34;5052229;28;20033;-67
2021/10/19 03:26:53;;;;;;;23.50;13.60;;;;;;;7.57;100.00;99306.84;5056380;28;20009;-67
2021/10/19 03:29:19;;;;;;;21.45;13.40;;;;;;;7.55;100.00;99299.81;5055462;28;20021;-67
2021/10/19 03:31:45;;;;;;;22.73;13.45;;;;;;;7.53;100.00;99310.28;5052407;28;20027;-67
2021/10/19 03:34:10;;;;;;;21.42;13.18;;;;;;;7.51;100.00;99322.53;5062216;28;20044;-67
2021/10/19 03:36:36;;;;;;;23.08;13.25;;;;;;;7.63;100.00;99317.31;5064300;28;20025;-67
2021/10/19 03:39:01;;;;;;;21.95;13.32;;;;;;;7.68;100.00;99318.19;5065499;28;20040;-67
2021/10/19 03:41:26;;;;;;;19.95;12.48;;;;;;;7.82;100.00;99328.72;5065425;28;20042;-67
2021/10/19 03:43:52;;;;;;;21.58;12.27;;;;;;;7.89;100.00;99317.38;5056105;28;20021;-67
2021/10/19 03:46:17;;;;;;;19.70;12.43;;;;;;;7.87;100.00;99321.72;5056047;28;20013;-67
2021/10/19 03:48:42;;;;;;;23.77;13.43;;;;;;;7.86;100.00;99322.63;5052122;28;20020;-67
2021/10/19 03:51:08;;;;;;;21.65;12.90;;;;;;;7.84;100.00;99326.97;5057427;28;20248;-67
2021/10/19 03:53:33;;;;;;;24.20;14.07;;;;;;;7.76;100.00;99326.09;5053297;28;20048;-67
2021/10/19 03:55:59;;;;;;;26.73;13.80;;;;;;;7.87;99.93;99326.97;5055871;28;20032;-67
2021/10/19 03:58:24;;;;;;;27.63;15.95;;;;;;;7.84;100.00;99312.13;5054838;28;20044;-67
2021/10/19 04:00:49;;;;;;;26.63;15.98;;;;;;;7.87;100.00;99309.50;5053841;28;20025;-67
2021/10/19 04:03:15;;;;;;;29.35;17.55;;;;;;;7.86;100.00;99314.75;5054141;28;20021;-67
2021/10/19 04:05:41;;;;;;;26.85;16.42;;;;;;;7.94;100.00;99313.88;5051068;28;20044;-67
2021/10/19 04:08:07;;;;;;;25.13;15.32;;;;;;;8.05;100.00;99316.53;5055886;28;20078;-67
2021/10/19 04:10:32;;;;;;;27.48;16.08;;;;;;;8.10;100.00;99314.81;5045173;28;20025;-67
2021/10/19 04:12:58;;;;;;;23.83;14.80;;;;;;;8.13;100.00;99315.66;5050923;28;20029;-67
2021/10/19 04:15:23;;;;;;;24.10;14.85;;;;;;;8.18;100.00;99305.19;5052179;28;20033;-67
2021/10/19 04:17:49;;;;;;;27.20;15.68;;;;;;;8.21;100.00;99308.69;5052671;28;20021;-67
2021/10/19 04:20:14;;;;;;;25.05;14.38;;;;;;;8.27;100.00;99313.09;5053383;28;20024;-67
2021/10/19 04:22:39;;;;;;;21.63;13.85;;;;;;;8.33;100.00;99316.56;5050535;28;20031;-67
2021/10/19 04:25:05;;;;;;;27.63;14.25;;;;;;;8.40;100.00;99323.59;5055703;28;20021;-67
2021/10/19 04:27:31;;;;;;;22.05;14.20;;;;;;;8.43;100.00;99315.75;5052727;28;20016;-67
2021/10/19 04:29:56;;;;;;;22.38;14.63;;;;;;;8.48;100.00;99321.84;5053068;28;20014;-67
2021/10/19 04:32:22;;;;;;;22.10;13.40;;;;;;;8.55;100.00;99320.94;5053649;28;20083;-67
2021/10/19 04:34:47;;;;;;;25.48;13.75;;;;;;;8.61;100.00;99326.19;5045748;28;20100;-67
2021/10/19 04:37:12;;;;;;;28.77;15.93;;;;;;;8.63;100.00;99319.22;5043199;28;20214;-67
2021/10/19 04:39:38;;;;;;;23.52;14.15;;;;;;;8.74;100.00;99327.94;5044410;28;20280;-67
2021/10/19 04:42:04;;;;;;;23.77;13.50;;;;;;;8.83;100.00;99322.69;5044366;28;20021;-67
2021/10/19 04:44:30;;;;;;;21.45;13.40;;;;;;;8.99;100.00;99320.03;5044360;28;20021;-67
2021/10/19 04:46:56;;;;;;;21.20;13.48;;;;;;;9.10;100.00;99321.75;5043880;28;20024;-67
2021/10/19 04:49:21;;;;;;;24.40;14.30;;;;;;;9.19;100.00;99315.59;5044345;28;20036;-68
2021/10/19 04:51:47;;;;;;;27.38;17.05;;;;;;;9.13;100.00;99357.63;5046239;28;20055;-68
2021/10/19 04:54:12;;;;;;;32.03;19.65;;;;;;;9.22;100.00;99337.47;5064114;28;20067;-68
2021/10/19 04:56:38;;;;;;;29.00;18.27;;;;;;;9.30;100.00;99330.44;5064024;28;20080;-68
2021/10/19 04:59:03;;;;;;;27.08;15.70;;;;;;;9.46;100.00;99311.09;5064234;28;20092;-68
2021/10/19 05:01:29;;;;;;;27.25;16.35;;;;;;;9.58;100.00;99312.81;5064051;28;20021;-67
2021/10/19 05:03:54;;;;;;;33.92;19.67;;;;;;;9.78;100.00;99319.72;5063701;28;20194;-67
2021/10/19 05:06:20;;;;;;;29.33;18.08;;;;;;;9.89;100.00;99310.03;5063683;28;20193;-67
2021/10/19 05:08:45;;;;;;;33.88;18.35;;;;;;;10.02;100.00;99318.69;5063944;28;20400;-67
2021/10/19 05:11:10;;;;;;;35.53;19.15;;;;;;;10.16;100.00;99311.66;5063919;28;20016;-67
2021/10/19 05:13:36;;;;;;;38.38;22.55;;;;;;;10.34;100.00;99308.84;5063865;28;20021;-67
2021/10/19 05:16:01;;;;;;;36.30;20.88;;;;;;;10.49;100.00;99314.00;5063616;28;20040;-67
2021/10/19 05:18:27;;;;;;;36.25;20.35;;;;;;;10.56;100.00;99313.06;5063812;28;20021;-67
2021/10/19 05:20:52;;;;;;;42.17;20.92;;;;;;;10.63;100.00;99314.75;5063843;28;20283;-67
2021/10/19 05:23:18;;;;;;;41.22;21.70;;;;;;;10.74;100.00;99308.53;5063811;28;20040;-67
2021/10/19 05:25:43;;;;;;;39.05;22.70;;;;;;;10.86;100.00;99307.53;5063753;28;20091;-67
2021/10/19 05:28:08;;;;;;;47.42;25.23;;;;;;;10.90;100.00;99298.69;5063726;28;20028;-67
2021/10/19 05:30:34;;;;;;;49.25;26.58;;;;;;;10.92;100.00;99303.06;5063721;28;20047;-67
2021/10/19 05:33:03;;;;;;;50.88;25.90;;;;;;;10.98;100.00;99307.38;5063704;28;20052;-67
2021/10/19 05:35:29;;;;;;;44.10;25.65;;;;;;;11.04;100.00;99309.97;5063686;28;20020;-67
2021/10/19 05:37:54;;;;;;;50.42;26.65;;;;;;;11.05;100.00;99319.63;5063544;28;20397;-67
2021/10/19 05:40:20;;;;;;;54.83;28.10;;;;;;;11.14;100.00;99308.13;5063670;28;20048;-67
2021/10/19 05:42:45;;;;;;;45.92;24.48;;;;;;;11.15;100.00;99302.84;5063618;28;20040;-67
2021/10/19 05:45:11;;;;;;;40.78;23.55;;;;;;;11.18;100.00;99300.16;5063620;28;20025;-67
2021/10/19 05:47:36;;;;;;;48.95;26.75;;;;;;;11.25;100.00;99307.09;5063574;28;20024;-67
2021/10/19 05:50:02;;;;;;;53.58;26.90;;;;;;;11.27;100.00;99310.59;5063532;28;20136;-67
2021/10/19 05:52:28;;;;;;;43.33;24.95;;;;;;;11.31;100.00;99296.50;5063499;28;20032;-67
2021/10/19 05:54:53;;;;;;;41.13;23.42;;;;;;;11.29;100.00;99300.03;5063485;28;20087;-67
2021/10/19 05:57:19;;;;;;;40.33;23.08;;;;;;;11.36;100.00;99297.28;5063383;28;20067;-67
2021/10/19 05:59:44;;;;;;;36.47;22.95;;;;;;;11.37;100.00;99301.69;5066253;28;20025;-67
2021/10/19 06:02:09;;;;;;;43.08;23.70;;;;;;;11.40;100.00;99301.66;5067265;28;20309;-67
2021/10/19 06:04:35;;;;;;;44.40;24.38;;;;;;;11.51;100.00;99307.66;5067305;28;20025;-67
2021/10/19 06:07:01;;;;;;;42.92;24.05;;;;;;;11.50;100.00;99319.09;5066198;28;20021;-67
2021/10/19 06:09:28;;;;;;;40.25;23.23;;;;;;;11.54;100.00;99315.53;5067170;28;20075;-67
2021/10/19 06:11:54;;;;;;;46.42;24.85;;;;;;;11.55;100.00;99317.28;5067128;28;20047;-67
2021/10/19 06:14:20;;;;;;;44.63;26.95;;;;;;;11.64;100.00;99309.28;5067099;28;20024;-67
2021/10/19 06:16:46;;;;;;;45.92;24.65;;;;;;;11.65;100.00;99312.81;5066973;28;20037;-67
2021/10/19 06:19:12;;;;;;;46.45;25.88;;;;;;;11.73;100.00;99316.19;5066973;28;20032;-67
2021/10/19 06:21:39;;;;;;;49.72;27.38;;;;;;;11.79;100.00;99316.13;5066952;28;20020;-67
2021/10/19 06:24:05;;;;;;;47.17;24.48;;;;;;;11.74;100.00;99305.63;5066892;28;20044;-67
2021/10/19 06:26:35;;;;;;;48.80;27.02;;;;;;;11.79;100.00;99314.38;5066876;28;20024;-67
2021/10/19 06:29:01;;;;;;;51.78;28.13;;;;;;;11.81;100.00;99309.94;5066780;28;20031;-67
2021/10/19 06:31:26;;;;;;;48.92;28.65;;;;;;;11.82;100.00;99310.81;5066714;28;20027;-67
2021/10/19 06:33:51;;;;;;;44.38;25.73;;;;;;;11.82;100.00;99301.13;5066724;28;20021;-67
2021/10/19 06:36:17;;;;;;;58.05;30.05;;;;;;;11.85;100.00;99302.84;5066550;28;20112;-67
2021/10/19 06:38:42;;;;;;;50.88;28.85;;;;;;;11.89;100.00;99292.25;5066656;28;20101;-67
2021/10/19 06:41:08;;;;;;;52.10;28.17;;;;;;;12.00;100.00;99285.06;5066609;28;20325;-67
2021/10/19 06:43:33;;;;;;;51.30;28.15;;;;;;;12.02;100.00;99288.53;5066544;28;20031;-67
2021/10/19 06:45:59;;;;;;;48.63;26.38;;;;;;;11.99;100.00;99283.28;5066505;28;20071;-67
2021/10/19 06:48:24;;;;;;;48.15;25.20;;;;;;;12.04;100.00;99283.22;5066475;28;20147;-67
2021/10/19 06:50:49;;;;;;;49.28;26.42;;;;;;;12.04;100.00;99281.47;5066429;28;20028;-67
2021/10/19 06:53:15;;;;;;;47.83;26.30;;;;;;;12.07;100.00;99281.44;5066386;28;20096;-67
2021/10/19 06:55:40;;;;;;;47.22;26.15;;;;;;;12.10;100.00;99297.22;5066252;28;20021;-67
2021/10/19 06:58:09;;;;;;;44.72;25.23;;;;;;;12.16;100.00;99302.41;5066291;28;20224;-67
2021/10/19 07:00:34;;;;;;;40.78;23.65;;;;;;;12.18;100.00;99319.06;5066199;28;20020;-67
2021/10/19 07:03:00;;;;;;;43.00;24.60;;;;;;;12.26;100.00;99319.84;5066143;28;20035;-67
2021/10/19 07:05:25;;;;;;;43.13;24.98;;;;;;;12.23;100.00;99324.28;5066158;28;20332;-67
2021/10/19 07:07:50;;;;;;;40.05;24.20;;;;;;;12.24;100.00;99321.63;5066187;28;20021;-67
2021/10/19 07:10:17;;;;;;;40.08;23.98;;;;;;;12.25;100.00;99315.44;5065717;28;20335;-67
2021/10/19 07:12:42;;;;;;;42.22;24.17;;;;;;;12.27;100.00;99311.00;5066073;28;20272;-67
2021/10/19 07:15:09;;;;;;;36.70;21.83;;;;;;;12.29;100.00;99314.53;5065828;28;20021;-67
2021/10/19 07:17:35;;;;;;;36.90;22.17;;;;;;;12.30;100.00;99303.06;5065832;28;20391;-67
2021/10/19 07:20:00;;;;;;;40.67;23.50;;;;;;;12.32;100.00;99296.00;5065884;28;20028;-67
2021/10/19 07:22:28;;;;;;;46.17;23.83;;;;;;;12.34;100.00;99294.19;5065820;28;20036;-67
2021/10/19 07:24:55;;;;;;;38.67;23.92;;;;;;;12.36;100.00;99295.03;5065765;28;20055;-67
2021/10/19 07:27:20;;;;;;;38.83;23.45;;;;;;;12.43;100.00;99309.88;5065773;28;20044;-67
2021/10/19 07:29:45;;;;;;;37.22;23.33;;;;;;;12.49;100.00;99291.31;5064531;28;20036;-67
2021/10/19 07:32:11;;;;;;;37.90;22.35;;;;;;;12.50;100.00;99289.53;5065639;28;20198;-67
2021/10/19 07:34:36;;;;;;;34.65;21.77;;;;;;;12.53;100.00;99282.44;5064392;28;20029;-67
2021/10/19 07:37:02;;;;;;;33.80;20.35;;;;;;;12.61;100.00;99291.09;5065485;28;20366;-67
2021/10/19 07:39:27;;;;;;;33.22;20.95;;;;;;;12.66;100.00;99297.16;5065505;28;20017;-67
2021/10/19 07:41:52;;;;;;;44.85;20.98;;;;;;;12.68;100.00;99305.94;5065448;28;20025;-67
2021/10/19 07:44:18;;;;;;;33.15;20.90;;;;;;;12.70;100.00;99306.81;5065440;28;20029;-67
2021/10/19 07:46:44;;;;;;;31.55;20.13;;;;;;;12.74;100.00;99308.47;5065346;28;20021;-67
2021/10/19 07:49:09;;;;;;;32.80;20.00;;;;;;;12.79;100.00;99316.31;5065331;28;20249;-67
2021/10/19 07:51:35;;;;;;;35.33;19.73;;;;;;;12.83;100.00;99318.00;5065283;28;20036;-67
2021/10/19 07:54:01;;;;;;;31.67;18.45;;;;;;;12.88;100.00;99321.47;5065238;28;20025;-67
2021/10/19 07:56:26;;;;;;;26.42;17.08;;;;;;;12.91;100.00;99327.53;5063932;28;20088;-67
2021/10/19 07:58:51;;;;;;;28.23;16.90;;;;;;;12.90;100.00;99325.81;5065141;28;20316;-67
2021/10/19 08:01:18;;;;;;;27.10;15.18;;;;;;;12.95;100.00;99334.50;5065106;28;20025;-67
2021/10/19 08:03:43;;;;;;;25.70;15.07;;;;;;;12.95;100.00;99331.00;5064967;28;20352;-67
2021/10/19 08:06:09;;;;;;;27.27;13.73;;;;;;;12.99;100.00;99325.69;5064963;28;20025;-67
2021/10/19 08:08:37;;;;;;;21.23;14.70;;;;;;;12.98;100.00;99321.25;5064969;28;20269;-67
2021/10/19 08:11:04;;;;;;;26.10;14.95;;;;;;;12.96;100.00;99317.78;5064880;28;20079;-67
2021/10/19 08:13:30;;;;;;;23.30;14.27;;;;;;;12.95;100.00;99302.78;5064832;28;20259;-67
2021/10/19 08:15:55;;;;;;;23.30;15.10;;;;;;;12.95;100.00;99297.50;5064535;28;20103;-67
2021/10/19 08:18:21;;;;;;;25.77;15.30;;;;;;;12.94;100.00;99301.06;5064805;28;20036;-67
2021/10/19 08:20:46;;;;;;;23.38;15.77;;;;;;;12.94;100.00;99306.34;5064243;28;20020;-67
2021/10/19 08:23:11;;;;;;;20.95;12.98;;;;;;;12.94;100.00;99309.00;5063290;28;20048;-67
2021/10/19 08:25:40;;;;;;;28.08;15.27;;;;;;;13.02;100.00;99303.59;5064613;28;20025;-67
2021/10/19 08:28:06;;;;;;;24.73;15.00;;;;;;;12.98;100.00;99296.59;5064627;28;20056;-67
2021/10/19 08:30:33;;;;;;;21.77;14.25;;;;;;;12.99;100.00;99308.94;5064539;28;20021;-67
2021/10/19 08:32:58;;;;;;;26.33;14.57;;;;;;;13.00;100.00;99327.41;5064488;28;20021;-67
2021/10/19 08:35:24;;;;;;;23.25;14.05;;;;;;;12.97;100.00;99327.44;5064560;28;20091;-67
2021/10/19 08:37:51;;;;;;;24.60;12.90;;;;;;;13.03;100.00;99315.91;5064449;28;20021;-67
2021/10/19 08:40:17;;;;;;;23.25;12.43;;;;;;;13.07;100.00;99316.75;5064416;28;20224;-67
2021/10/19 08:42:51;;;;;;;20.40;12.43;;;;;;;13.10;100.00;99308.75;5064352;28;20021;-67
2021/10/19 08:45:17;;;;;;;20.25;13.25;;;;;;;13.12;100.00;99304.28;5064294;28;20092;-67
2021/10/19 08:47:44;;;;;;;18.65;12.15;;;;;;;13.15;100.00;99314.81;5064237;28;20017;-67
2021/10/19 08:50:12;;;;;;;23.15;12.35;;;;;;;13.16;100.00;99312.13;5064247;28;20087;-67
2021/10/19 08:52:38;;;;;;;19.80;12.57;;;;;;;13.17;100.00;99313.00;5064169;28;20224;-67
2021/10/19 08:55:04;;;;;;;22.45;12.68;;;;;;;13.15;100.00;99312.16;5064112;28;20021;-67
2021/10/19 08:57:29;;;;;;;19.90;11.82;;;;;;;13.17;100.00;99308.63;5064030;28;20086;-67
2021/10/19 08:59:55;;;;;;;20.08;11.95;;;;;;;13.22;100.00;99306.72;5064094;28;20091;-67
2021/10/19 09:02:35;;;;;;;20.38;12.40;;;;;;;13.22;100.00;99308.53;5063973;28;20021;-67
2021/10/19 09:05:01;;;;;;;17.50;11.77;;;;;;;13.32;100.00;99302.16;5064024;28;20075;-67
2021/10/19 09:07:27;;;;;;;17.88;10.05;;;;;;;13.36;100.00;99314.41;5063977;28;20043;-67
2021/10/19 09:09:52;;;;;;;18.55;11.68;;;;;;;13.42;99.83;99306.34;5063943;28;20028;-67
2021/10/19 09:12:22;;;;;;;19.23;10.68;;;;;;;13.47;98.75;99312.41;5063994;28;20029;-67
2021/10/19 09:14:48;;;;;;;16.27;10.13;;;;;;;13.57;97.83;99319.28;5063865;28;20374;-67
2021/10/19 09:17:13;;;;;;;18.08;11.00;;;;;;;13.59;98.95;99312.16;5063589;28;20040;-67
2021/10/19 09:19:41;;;;;;;17.65;10.63;;;;;;;13.68;98.55;99311.97;5063842;28;20025;-67
2021/10/19 09:22:11;;;;;;;16.85;10.35;;;;;;;13.70;97.97;99318.13;5063827;28;20028;-67
2021/10/19 09:24:39;;;;;;;15.60;9.77;;;;;;;13.78;96.69;99318.81;5064075;28;20243;-67
2021/10/19 09:27:16;;;;;;;15.48;10.25;;;;;;;13.91;96.04;99309.69;5063756;28;20040;-67
2021/10/19 09:29:44;;;;;;;17.75;10.15;;;;;;;14.00;95.39;99322.75;5063799;28;20029;-67
2021/10/19 09:32:12;;;;;;;15.80;9.75;;;;;;;14.05;95.26;99323.53;5064000;28;20033;-67
2021/10/19 09:34:39;;;;;;;19.27;9.57;;;;;;;14.06;95.69;99317.31;5067886;28;20036;-67
2021/10/19 09:37:10;;;;;;;15.80;9.88;;;;;;;14.07;95.77;99313.75;5067660;28;20036;-67
2021/10/19 09:39:37;;;;;;;16.25;10.40;;;;;;;14.10;96.24;99321.63;5067728;28;20024;-67
2021/10/19 09:42:18;;;;;;;14.90;10.05;;;;;;;14.10;96.14;99321.63;5067739;28;20088;-67
2021/10/19 09:44:58;;;;;;;16.10;9.85;;;;;;;14.17;95.84;99317.94;5067741;28;20032;-67
2021/10/19 09:47:37;;;;;;;18.10;8.05;;;;;;;14.35;94.48;99312.25;5067735;28;20036;-67
2021/10/19 09:50:08;;;;;;;22.95;9.38;;;;;;;14.52;93.19;99315.34;5067625;28;20016;-67
2021/10/19 09:52:38;;;;;;;18.10;9.90;;;;;;;14.75;93.09;99310.38;5067562;28;20025;-67
2021/10/19 09:55:09;;;;;;;21.00;8.52;;;;;;;15.01;91.52;99311.47;5067736;28;20024;-67
2021/10/19 09:57:36;;;;;;;12.50;8.03;;;;;;;15.45;90.32;99323.53;5066281;28;20376;-67
2021/10/19 10:00:03;;;;;;;13.02;7.88;;;;;;;16.39;87.29;99317.13;5067384;28;20246;-67
2021/10/19 10:02:28;;;;;;;13.48;8.43;;;;;;;16.35;86.83;99315.50;5067322;28;20021;-67
2021/10/19 10:04:54;;;;;;;14.45;8.23;;;;;;;16.79;87.13;99311.41;5067303;28;20108;-67
2021/10/19 10:07:21;;;;;;;13.23;8.48;;;;;;;16.97;84.51;99317.00;5067356;28;20020;-67
2021/10/19 10:09:48;;;;;;;14.85;8.05;;;;;;;17.44;82.73;99307.38;5067500;28;20021;-67
2021/10/19 10:12:14;;;;;;;14.70;8.13;;;;;;;17.60;82.89;99299.69;5067188;28;20066;-67
2021/10/19 10:14:47;;;;;;;13.27;7.88;;;;;;;17.00;80.46;99306.22;5067134;28;20024;-67
2021/10/19 10:17:13;;;;;;;15.55;7.75;;;;;;;16.78;82.77;99299.94;5066872;28;20041;-67
2021/10/19 10:19:40;;;;;;;16.02;7.88;;;;;;;16.79;83.58;99301.66;5067054;28;20052;-67
2021/10/19 10:22:17;;;;;;;14.73;8.52;;;;;;;16.80;83.06;99294.56;5066997;28;20067;-67
2021/10/19 10:24:44;;;;;;;13.65;7.88;;;;;;;16.54;83.38;99284.78;5066956;28;20029;-67
2021/10/19 10:27:14;;;;;;;12.88;8.07;;;;;;;16.68;84.39;99301.13;5066915;28;20025;-67
2021/10/19 10:29:45;;;;;;;10.75;7.25;;;;;;;16.85;82.63;99300.56;5066985;28;20342;-67
2021/10/19 10:32:30;;;;;;;13.55;7.85;;;;;;;16.87;83.70;99299.59;5066842;28;20247;-67
2021/10/19 10:35:30;;;;;;;11.77;7.55;;;;;;;16.93;83.22;99299.38;5066810;28;20039;-67
2021/10/19 10:37:57;;;;;;;15.68;8.57;;;;;;;16.88;85.72;99300.47;5065170;28;20355;-67
2021/10/19 10:40:35;;;;;;;15.05;8.10;;;;;;;16.94;84.66;99290.50;5065432;28;20021;-67
2021/10/19 10:43:17;;;;;;;14.70;8.60;;;;;;;16.88;84.92;99290.72;5066636;28;20071;-67
2021/10/19 10:45:43;;;;;;;14.45;8.52;;;;;;;16.98;85.05;99285.94;5064729;28;20025;-67
2021/10/19 10:48:08;;;;;;;12.65;7.85;;;;;;;17.00;85.36;99279.63;5066478;28;20025;-67
2021/10/19 10:50:37;;;;;;;14.45;8.48;;;;;;;17.07;83.80;99265.22;5066455;28;20036;-67
2021/10/19 10:53:11;;;;;;;14.05;8.32;;;;;;;17.01;85.00;99276.06;5066425;28;20028;-67
2021/10/19 10:55:41;;;;;;;18.88;8.38;;;;;;;17.02;84.20;99264.50;5066390;28;20017;-67
2021/10/19 10:58:07;;;;;;;14.38;7.95;;;;;;;17.00;83.72;99258.34;5066318;28;20240;-67
2021/10/19 11:00:33;;;;;;;15.07;8.20;;;;;;;16.96;83.58;99264.72;5066305;28;20084;-67
2021/10/19 11:03:14;;;;;;;14.73;8.18;;;;;;;16.82;84.25;99264.34;5066148;28;20078;-67
2021/10/19 11:05:53;;;;;;;17.83;9.15;;;;;;;16.80;82.97;99258.19;5066221;28;20056;-67
2021/10/19 11:08:28;;;;;;;17.60;9.93;;;;;;;16.60;84.26;99257.13;5066195;28;20028;-67
2021/10/19 11:11:03;;;;;;;13.45;8.07;;;;;;;16.69;83.25;99260.34;5066062;28;20024;-67
2021/10/19 11:13:30;;;;;;;18.08;8.65;;;;;;;16.49;84.85;99251.31;5066019;28;20028;-67
2021/10/19 11:15:56;;;;;;;16.00;8.90;;;;;;;16.50;85.27;99253.91;5065709;28;20099;-67